sensor_id;sensor_type;location;lat;lon;timestamp;P1;durP1;ratioP1;P2;durP2;ratioP2
62903;SDS011;49000;50.698;13.322;2022-08-19T00:00:05;37.92;;;29.80;;
62903;SDS011;49000;50.698;13.322;2022-08-19T00:02:33;40.80;;;30.63;;
62903;SDS011;49000;50.698;13.322;2022-08-19T00:04:58;42.03;;;31.83;;
62903;SDS011;49000;50.698;13.322;2022-08-19T00:07:24;44.93;;;33.10;;
62903;SDS011;49000;50.698;13.322;2022-08-19T00:09:49;47.73;;;34.67;;
62903;SDS011;49000;50.698;13.322;2022-08-19T00:12:15;44.63;;;33.33;;
62903;SDS011;49000;50.698;13.322;2022-08-19T00:14:40;44.07;;;32.80;;
62903;SDS011;49000;50.698;13.322;2022-08-19T00:17:07;36.03;;;29.00;;
62903;SDS011;49000;50.698;13.322;2022-08-19T00:19:33;37.80;;;29.77;;
62903;SDS011;49000;50.698;13.322;2022-08-19T00:22:00;40.97;;;30.87;;
62903;SDS011;49000;50.698;13.322;2022-08-19T00:24:27;36.63;;;30.30;;
62903;SDS011;49000;50.698;13.322;2022-08-19T00:26:53;39.77;;;31.50;;
62903;SDS011;49000;50.698;13.322;2022-08-19T00:29:20;37.03;;;28.73;;
62903;SDS011;49000;50.698;13.322;2022-08-19T00:31:46;46.03;;;31.63;;
62903;SDS011;49000;50.698;13.322;2022-08-19T00:34:13;40.13;;;30.67;;
62903;SDS011;49000;50.698;13.322;2022-08-19T00:36:40;35.53;;;28.23;;
62903;SDS011;49000;50.698;13.322;2022-08-19T00:39:06;39.43;;;30.93;;
62903;SDS011;49000;50.698;13.322;2022-08-19T00:41:32;36.70;;;29.77;;
62903;SDS011;49000;50.698;13.322;2022-08-19T00:44:02;35.80;;;29.23;;
62903;SDS011;49000;50.698;13.322;2022-08-19T00:46:34;39.83;;;30.57;;
62903;SDS011;49000;50.698;13.322;2022-08-19T00:49:03;38.20;;;30.10;;
62903;SDS011;49000;50.698;13.322;2022-08-19T00:51:34;35.63;;;28.07;;
62903;SDS011;49000;50.698;13.322;2022-08-19T00:54:01;43.47;;;32.10;;
62903;SDS011;49000;50.698;13.322;2022-08-19T00:56:27;42.67;;;33.20;;
62903;SDS011;49000;50.698;13.322;2022-08-19T00:58:54;42.00;;;31.83;;
62903;SDS011;49000;50.698;13.322;2022-08-19T01:01:21;36.90;;;29.60;;
62903;SDS011;49000;50.698;13.322;2022-08-19T01:03:46;41.40;;;31.00;;
62903;SDS011;49000;50.698;13.322;2022-08-19T01:06:12;34.60;;;27.87;;
62903;SDS011;49000;50.698;13.322;2022-08-19T01:08:39;44.13;;;31.90;;
62903;SDS011;49000;50.698;13.322;2022-08-19T01:11:04;38.47;;;29.13;;
62903;SDS011;49000;50.698;13.322;2022-08-19T01:13:32;41.77;;;31.70;;
62903;SDS011;49000;50.698;13.322;2022-08-19T01:16:03;38.67;;;29.93;;
62903;SDS011;49000;50.698;13.322;2022-08-19T01:18:31;41.87;;;31.57;;
62903;SDS011;49000;50.698;13.322;2022-08-19T01:21:01;30.03;;;24.77;;
62903;SDS011;49000;50.698;13.322;2022-08-19T01:23:31;37.50;;;29.23;;
62903;SDS011;49000;50.698;13.322;2022-08-19T01:26:13;37.27;;;29.53;;
62903;SDS011;49000;50.698;13.322;2022-08-19T01:28:41;34.07;;;27.27;;
62903;SDS011;49000;50.698;13.322;2022-08-19T01:31:09;31.27;;;26.37;;
62903;SDS011;49000;50.698;13.322;2022-08-19T01:33:38;33.10;;;28.87;;
62903;SDS011;49000;50.698;13.322;2022-08-19T01:36:04;27.67;;;24.67;;
62903;SDS011;49000;50.698;13.322;2022-08-19T01:38:35;39.13;;;29.20;;
62903;SDS011;49000;50.698;13.322;2022-08-19T01:41:01;31.57;;;25.80;;
62903;SDS011;49000;50.698;13.322;2022-08-19T01:43:27;38.03;;;29.27;;
62903;SDS011;49000;50.698;13.322;2022-08-19T01:45:52;31.77;;;25.97;;
62903;SDS011;49000;50.698;13.322;2022-08-19T01:48:18;35.53;;;28.57;;
62903;SDS011;49000;50.698;13.322;2022-08-19T01:50:44;30.20;;;24.77;;
62903;SDS011;49000;50.698;13.322;2022-08-19T01:53:10;32.70;;;27.53;;
62903;SDS011;49000;50.698;13.322;2022-08-19T01:55:38;32.97;;;27.77;;
62903;SDS011;49000;50.698;13.322;2022-08-19T01:58:05;35.43;;;27.57;;
62903;SDS011;49000;50.698;13.322;2022-08-19T02:00:32;33.00;;;26.30;;
62903;SDS011;49000;50.698;13.322;2022-08-19T02:02:58;34.93;;;26.97;;
62903;SDS011;49000;50.698;13.322;2022-08-19T02:05:24;42.47;;;30.13;;
62903;SDS011;49000;50.698;13.322;2022-08-19T02:07:49;35.67;;;26.97;;
62903;SDS011;49000;50.698;13.322;2022-08-19T02:10:17;32.53;;;27.53;;
62903;SDS011;49000;50.698;13.322;2022-08-19T02:12:45;33.00;;;26.83;;
62903;SDS011;49000;50.698;13.322;2022-08-19T02:15:11;29.67;;;23.30;;
62903;SDS011;49000;50.698;13.322;2022-08-19T02:17:37;33.17;;;27.40;;
62903;SDS011;49000;50.698;13.322;2022-08-19T02:20:03;33.03;;;26.43;;
62903;SDS011;49000;50.698;13.322;2022-08-19T02:22:29;28.43;;;24.27;;
62903;SDS011;49000;50.698;13.322;2022-08-19T02:24:55;34.80;;;26.00;;
62903;SDS011;49000;50.698;13.322;2022-08-19T02:27:21;34.17;;;27.03;;
62903;SDS011;49000;50.698;13.322;2022-08-19T02:29:47;27.17;;;22.90;;
62903;SDS011;49000;50.698;13.322;2022-08-19T02:32:15;23.93;;;20.33;;
62903;SDS011;49000;50.698;13.322;2022-08-19T02:34:41;29.50;;;24.70;;
62903;SDS011;49000;50.698;13.322;2022-08-19T02:37:07;22.87;;;19.80;;
62903;SDS011;49000;50.698;13.322;2022-08-19T02:39:52;31.20;;;25.23;;
62903;SDS011;49000;50.698;13.322;2022-08-19T02:42:18;25.45;;;20.60;;
62903;SDS011;49000;50.698;13.322;2022-08-19T02:44:43;20.92;;;18.65;;
62903;SDS011;49000;50.698;13.322;2022-08-19T02:47:09;24.00;;;20.43;;
62903;SDS011;49000;50.698;13.322;2022-08-19T02:49:35;23.98;;;20.88;;
62903;SDS011;49000;50.698;13.322;2022-08-19T02:52:01;17.77;;;15.85;;
62903;SDS011;49000;50.698;13.322;2022-08-19T02:54:27;17.50;;;15.40;;
62903;SDS011;49000;50.698;13.322;2022-08-19T02:56:53;15.63;;;14.03;;
62903;SDS011;49000;50.698;13.322;2022-08-19T02:59:18;15.03;;;12.83;;
62903;SDS011;49000;50.698;13.322;2022-08-19T03:01:44;15.50;;;13.95;;
62903;SDS011;49000;50.698;13.322;2022-08-19T03:04:11;16.38;;;14.52;;
62903;SDS011;49000;50.698;13.322;2022-08-19T03:06:40;13.93;;;12.60;;
62903;SDS011;49000;50.698;13.322;2022-08-19T03:09:10;15.98;;;13.98;;
62903;SDS011;49000;50.698;13.322;2022-08-19T03:11:36;17.45;;;15.40;;
62903;SDS011;49000;50.698;13.322;2022-08-19T03:14:03;13.63;;;12.25;;
62903;SDS011;49000;50.698;13.322;2022-08-19T03:16:31;14.30;;;12.80;;
62903;SDS011;49000;50.698;13.322;2022-08-19T03:18:59;12.37;;;11.17;;
62903;SDS011;49000;50.698;13.322;2022-08-19T03:21:27;10.45;;;8.35;;
62903;SDS011;49000;50.698;13.322;2022-08-19T03:23:58;14.37;;;11.80;;
62903;SDS011;49000;50.698;13.322;2022-08-19T03:26:27;13.48;;;12.05;;
62903;SDS011;49000;50.698;13.322;2022-08-19T03:28:54;11.37;;;10.20;;
62903;SDS011;49000;50.698;13.322;2022-08-19T03:31:20;11.10;;;10.00;;
62903;SDS011;49000;50.698;13.322;2022-08-19T03:33:50;10.10;;;9.13;;
62903;SDS011;49000;50.698;13.322;2022-08-19T03:36:17;8.73;;;7.93;;
62903;SDS011;49000;50.698;13.322;2022-08-19T03:38:51;10.57;;;9.18;;
62903;SDS011;49000;50.698;13.322;2022-08-19T03:41:30;12.13;;;10.93;;
62903;SDS011;49000;50.698;13.322;2022-08-19T03:43:57;10.67;;;9.57;;
62903;SDS011;49000;50.698;13.322;2022-08-19T03:46:25;10.33;;;9.23;;
62903;SDS011;49000;50.698;13.322;2022-08-19T03:48:56;10.23;;;9.20;;
62903;SDS011;49000;50.698;13.322;2022-08-19T03:51:24;9.60;;;8.67;;
62903;SDS011;49000;50.698;13.322;2022-08-19T03:53:52;8.80;;;7.90;;
62903;SDS011;49000;50.698;13.322;2022-08-19T03:56:18;9.10;;;8.20;;
62903;SDS011;49000;50.698;13.322;2022-08-19T03:58:44;7.23;;;6.53;;
62903;SDS011;49000;50.698;13.322;2022-08-19T04:01:12;10.07;;;9.00;;
62903;SDS011;49000;50.698;13.322;2022-08-19T04:03:40;9.50;;;8.53;;
62903;SDS011;49000;50.698;13.322;2022-08-19T04:06:16;8.70;;;7.90;;
62903;SDS011;49000;50.698;13.322;2022-08-19T04:08:42;12.03;;;10.83;;
62903;SDS011;49000;50.698;13.322;2022-08-19T04:11:10;10.43;;;9.33;;
62903;SDS011;49000;50.698;13.322;2022-08-19T04:13:38;12.32;;;11.05;;
62903;SDS011;49000;50.698;13.322;2022-08-19T04:16:04;11.77;;;10.57;;
62903;SDS011;49000;50.698;13.322;2022-08-19T04:18:31;10.63;;;9.50;;
62903;SDS011;49000;50.698;13.322;2022-08-19T04:20:58;15.60;;;13.90;;
62903;SDS011;49000;50.698;13.322;2022-08-19T04:23:24;12.73;;;11.03;;
62903;SDS011;49000;50.698;13.322;2022-08-19T04:25:49;13.73;;;12.30;;
62903;SDS011;49000;50.698;13.322;2022-08-19T04:28:15;12.85;;;11.05;;
62903;SDS011;49000;50.698;13.322;2022-08-19T04:30:42;13.57;;;12.17;;
62903;SDS011;49000;50.698;13.322;2022-08-19T04:33:11;14.35;;;12.85;;
62903;SDS011;49000;50.698;13.322;2022-08-19T04:35:38;15.63;;;13.90;;
62903;SDS011;49000;50.698;13.322;2022-08-19T04:38:05;12.67;;;10.97;;
62903;SDS011;49000;50.698;13.322;2022-08-19T04:40:31;10.73;;;9.63;;
62903;SDS011;49000;50.698;13.322;2022-08-19T04:43:16;14.20;;;12.70;;
62903;SDS011;49000;50.698;13.322;2022-08-19T04:45:46;15.83;;;12.80;;
62903;SDS011;49000;50.698;13.322;2022-08-19T04:48:12;15.10;;;11.80;;
62903;SDS011;49000;50.698;13.322;2022-08-19T04:50:42;16.07;;;13.00;;
62903;SDS011;49000;50.698;13.322;2022-08-19T04:53:08;13.47;;;12.07;;
62903;SDS011;49000;50.698;13.322;2022-08-19T04:55:34;14.95;;;12.57;;
62903;SDS011;49000;50.698;13.322;2022-08-19T04:58:02;14.87;;;13.33;;
62903;SDS011;49000;50.698;13.322;2022-08-19T05:00:28;18.30;;;14.97;;
62903;SDS011;49000;50.698;13.322;2022-08-19T05:02:54;14.60;;;12.77;;
62903;SDS011;49000;50.698;13.322;2022-08-19T05:05:19;17.37;;;15.53;;
62903;SDS011;49000;50.698;13.322;2022-08-19T05:07:45;13.47;;;12.07;;
62903;SDS011;49000;50.698;13.322;2022-08-19T05:10:11;16.40;;;14.70;;
62903;SDS011;49000;50.698;13.322;2022-08-19T05:12:37;16.77;;;14.98;;
62903;SDS011;49000;50.698;13.322;2022-08-19T05:15:04;17.37;;;15.20;;
62903;SDS011;49000;50.698;13.322;2022-08-19T05:17:31;17.10;;;13.85;;
62903;SDS011;49000;50.698;13.322;2022-08-19T05:19:56;21.27;;;18.17;;
62903;SDS011;49000;50.698;13.322;2022-08-19T05:22:41;29.80;;;22.08;;
62903;SDS011;49000;50.698;13.322;2022-08-19T05:25:09;19.17;;;16.33;;
62903;SDS011;49000;50.698;13.322;2022-08-19T05:27:37;26.45;;;19.75;;
62903;SDS011;49000;50.698;13.322;2022-08-19T05:30:03;23.77;;;18.27;;
62903;SDS011;49000;50.698;13.322;2022-08-19T05:32:29;28.03;;;19.47;;
62903;SDS011;49000;50.698;13.322;2022-08-19T05:34:55;32.63;;;21.27;;
62903;SDS011;49000;50.698;13.322;2022-08-19T05:37:21;18.95;;;16.08;;
62903;SDS011;49000;50.698;13.322;2022-08-19T05:39:47;22.10;;;17.43;;
62903;SDS011;49000;50.698;13.322;2022-08-19T05:42:14;24.43;;;17.80;;
62903;SDS011;49000;50.698;13.322;2022-08-19T05:44:41;21.40;;;16.33;;
62903;SDS011;49000;50.698;13.322;2022-08-19T05:47:09;22.90;;;15.95;;
62903;SDS011;49000;50.698;13.322;2022-08-19T05:49:36;15.97;;;13.30;;
62903;SDS011;49000;50.698;13.322;2022-08-19T05:52:07;14.73;;;12.13;;
62903;SDS011;49000;50.698;13.322;2022-08-19T05:54:36;19.55;;;15.00;;
62903;SDS011;49000;50.698;13.322;2022-08-19T05:57:04;16.20;;;13.80;;
62903;SDS011;49000;50.698;13.322;2022-08-19T05:59:30;13.30;;;11.27;;
62903;SDS011;49000;50.698;13.322;2022-08-19T06:01:56;12.95;;;11.40;;
62903;SDS011;49000;50.698;13.322;2022-08-19T06:04:22;13.33;;;10.80;;
62903;SDS011;49000;50.698;13.322;2022-08-19T06:06:48;12.07;;;9.73;;
62903;SDS011;49000;50.698;13.322;2022-08-19T06:09:16;11.48;;;10.00;;
62903;SDS011;49000;50.698;13.322;2022-08-19T06:11:43;12.73;;;11.13;;
62903;SDS011;49000;50.698;13.322;2022-08-19T06:14:12;10.93;;;9.82;;
62903;SDS011;49000;50.698;13.322;2022-08-19T06:16:41;11.70;;;10.50;;
62903;SDS011;49000;50.698;13.322;2022-08-19T06:19:08;11.57;;;10.38;;
62903;SDS011;49000;50.698;13.322;2022-08-19T06:21:37;10.77;;;9.13;;
62903;SDS011;49000;50.698;13.322;2022-08-19T06:24:05;10.20;;;9.15;;
62903;SDS011;49000;50.698;13.322;2022-08-19T06:26:33;10.45;;;9.38;;
62903;SDS011;49000;50.698;13.322;2022-08-19T06:29:00;9.97;;;8.93;;
62903;SDS011;49000;50.698;13.322;2022-08-19T06:31:26;10.43;;;9.32;;
62903;SDS011;49000;50.698;13.322;2022-08-19T06:33:53;9.35;;;8.43;;
62903;SDS011;49000;50.698;13.322;2022-08-19T06:36:26;8.77;;;7.53;;
62903;SDS011;49000;50.698;13.322;2022-08-19T06:38:57;8.13;;;7.32;;
62903;SDS011;49000;50.698;13.322;2022-08-19T06:41:24;10.02;;;7.80;;
62903;SDS011;49000;50.698;13.322;2022-08-19T06:43:50;7.38;;;6.55;;
62903;SDS011;49000;50.698;13.322;2022-08-19T06:46:16;8.32;;;7.53;;
62903;SDS011;49000;50.698;13.322;2022-08-19T06:48:43;8.88;;;7.97;;
62903;SDS011;49000;50.698;13.322;2022-08-19T06:51:09;18.05;;;9.45;;
62903;SDS011;49000;50.698;13.322;2022-08-19T06:53:34;8.93;;;7.90;;
62903;SDS011;49000;50.698;13.322;2022-08-19T06:56:00;8.83;;;7.93;;
62903;SDS011;49000;50.698;13.322;2022-08-19T06:58:26;11.27;;;9.33;;
62903;SDS011;49000;50.698;13.322;2022-08-19T07:00:57;11.68;;;9.70;;
62903;SDS011;49000;50.698;13.322;2022-08-19T07:03:26;11.27;;;9.77;;
62903;SDS011;49000;50.698;13.322;2022-08-19T07:05:56;11.52;;;9.52;;
62903;SDS011;49000;50.698;13.322;2022-08-19T07:08:22;11.35;;;8.98;;
62903;SDS011;49000;50.698;13.322;2022-08-19T07:10:49;14.45;;;10.73;;
62903;SDS011;49000;50.698;13.322;2022-08-19T07:13:14;14.15;;;10.93;;
62903;SDS011;49000;50.698;13.322;2022-08-19T07:15:40;11.77;;;9.82;;
62903;SDS011;49000;50.698;13.322;2022-08-19T07:18:05;12.07;;;9.97;;
62903;SDS011;49000;50.698;13.322;2022-08-19T07:20:31;11.93;;;9.98;;
62903;SDS011;49000;50.698;13.322;2022-08-19T07:22:57;13.30;;;11.38;;
62903;SDS011;49000;50.698;13.322;2022-08-19T07:25:23;11.18;;;9.68;;
62903;SDS011;49000;50.698;13.322;2022-08-19T07:27:49;11.80;;;10.45;;
62903;SDS011;49000;50.698;13.322;2022-08-19T07:30:15;12.48;;;10.98;;
62903;SDS011;49000;50.698;13.322;2022-08-19T07:32:41;16.00;;;11.75;;
62903;SDS011;49000;50.698;13.322;2022-08-19T07:35:07;14.33;;;11.23;;
62903;SDS011;49000;50.698;13.322;2022-08-19T07:37:34;22.55;;;14.68;;
62903;SDS011;49000;50.698;13.322;2022-08-19T07:40:02;23.73;;;15.65;;
62903;SDS011;49000;50.698;13.322;2022-08-19T07:42:29;20.45;;;14.50;;
62903;SDS011;49000;50.698;13.322;2022-08-19T07:44:54;21.35;;;15.05;;
62903;SDS011;49000;50.698;13.322;2022-08-19T07:47:20;21.38;;;15.07;;
62903;SDS011;49000;50.698;13.322;2022-08-19T07:49:45;20.57;;;14.63;;
62903;SDS011;49000;50.698;13.322;2022-08-19T07:52:11;21.95;;;16.02;;
62903;SDS011;49000;50.698;13.322;2022-08-19T07:54:38;20.60;;;14.25;;
62903;SDS011;49000;50.698;13.322;2022-08-19T07:57:04;20.35;;;15.63;;
62903;SDS011;49000;50.698;13.322;2022-08-19T07:59:31;24.80;;;16.25;;
62903;SDS011;49000;50.698;13.322;2022-08-19T08:01:57;23.13;;;16.33;;
62903;SDS011;49000;50.698;13.322;2022-08-19T08:04:25;23.40;;;17.40;;
62903;SDS011;49000;50.698;13.322;2022-08-19T08:07:09;18.75;;;14.20;;
62903;SDS011;49000;50.698;13.322;2022-08-19T08:09:53;21.67;;;16.38;;
62903;SDS011;49000;50.698;13.322;2022-08-19T08:12:25;28.73;;;18.23;;
62903;SDS011;49000;50.698;13.322;2022-08-19T08:14:54;23.27;;;17.13;;
62903;SDS011;49000;50.698;13.322;2022-08-19T08:17:23;25.45;;;18.00;;
62903;SDS011;49000;50.698;13.322;2022-08-19T08:19:50;21.17;;;15.95;;
62903;SDS011;49000;50.698;13.322;2022-08-19T08:22:18;26.30;;;17.85;;
62903;SDS011;49000;50.698;13.322;2022-08-19T08:25:05;25.35;;;17.55;;
62903;SDS011;49000;50.698;13.322;2022-08-19T08:27:37;22.33;;;16.52;;
62903;SDS011;49000;50.698;13.322;2022-08-19T08:30:05;25.40;;;17.85;;
62903;SDS011;49000;50.698;13.322;2022-08-19T08:32:35;25.63;;;17.50;;
62903;SDS011;49000;50.698;13.322;2022-08-19T08:35:02;22.77;;;16.75;;
62903;SDS011;49000;50.698;13.322;2022-08-19T08:37:29;25.40;;;18.92;;
62903;SDS011;49000;50.698;13.322;2022-08-19T08:39:55;26.90;;;19.92;;
62903;SDS011;49000;50.698;13.322;2022-08-19T08:42:22;24.88;;;17.30;;
62903;SDS011;49000;50.698;13.322;2022-08-19T08:44:58;21.75;;;17.17;;
62903;SDS011;49000;50.698;13.322;2022-08-19T08:47:32;23.95;;;17.65;;
62903;SDS011;49000;50.698;13.322;2022-08-19T08:50:04;21.92;;;17.77;;
62903;SDS011;49000;50.698;13.322;2022-08-19T08:52:37;25.65;;;18.05;;
62903;SDS011;49000;50.698;13.322;2022-08-19T08:55:12;25.67;;;19.00;;
62903;SDS011;49000;50.698;13.322;2022-08-19T08:57:49;27.70;;;20.30;;
62903;SDS011;49000;50.698;13.322;2022-08-19T09:00:32;24.63;;;18.63;;
62903;SDS011;49000;50.698;13.322;2022-08-19T09:03:00;26.60;;;19.60;;
62903;SDS011;49000;50.698;13.322;2022-08-19T09:05:31;25.70;;;17.73;;
62903;SDS011;49000;50.698;13.322;2022-08-19T09:08:10;25.90;;;18.58;;
62903;SDS011;49000;50.698;13.322;2022-08-19T09:10:48;26.67;;;17.85;;
62903;SDS011;49000;50.698;13.322;2022-08-19T09:13:28;23.95;;;16.73;;
62903;SDS011;49000;50.698;13.322;2022-08-19T09:16:19;19.75;;;13.95;;
62903;SDS011;49000;50.698;13.322;2022-08-19T09:18:50;19.88;;;14.27;;
62903;SDS011;49000;50.698;13.322;2022-08-19T09:21:18;25.30;;;17.52;;
62903;SDS011;49000;50.698;13.322;2022-08-19T09:23:45;28.63;;;19.85;;
62903;SDS011;49000;50.698;13.322;2022-08-19T09:26:12;30.60;;;19.75;;
62903;SDS011;49000;50.698;13.322;2022-08-19T09:28:39;26.38;;;19.90;;
62903;SDS011;49000;50.698;13.322;2022-08-19T09:31:09;29.58;;;21.33;;
62903;SDS011;49000;50.698;13.322;2022-08-19T09:33:36;26.35;;;19.75;;
62903;SDS011;49000;50.698;13.322;2022-08-19T09:36:03;24.90;;;19.25;;
62903;SDS011;49000;50.698;13.322;2022-08-19T09:38:33;26.67;;;20.48;;
62903;SDS011;49000;50.698;13.322;2022-08-19T09:41:06;24.08;;;18.90;;
62903;SDS011;49000;50.698;13.322;2022-08-19T09:43:37;23.60;;;20.02;;
62903;SDS011;49000;50.698;13.322;2022-08-19T09:46:03;24.10;;;20.15;;
62903;SDS011;49000;50.698;13.322;2022-08-19T09:48:31;27.27;;;22.05;;
62903;SDS011;49000;50.698;13.322;2022-08-19T09:51:14;29.45;;;23.05;;
62903;SDS011;49000;50.698;13.322;2022-08-19T09:53:42;27.48;;;22.98;;
62903;SDS011;49000;50.698;13.322;2022-08-19T09:56:09;28.33;;;23.13;;
62903;SDS011;49000;50.698;13.322;2022-08-19T09:58:35;25.45;;;20.83;;
62903;SDS011;49000;50.698;13.322;2022-08-19T10:01:01;20.25;;;17.30;;
62903;SDS011;49000;50.698;13.322;2022-08-19T10:03:28;21.85;;;19.33;;
62903;SDS011;49000;50.698;13.322;2022-08-19T10:05:55;17.67;;;15.77;;
62903;SDS011;49000;50.698;13.322;2022-08-19T10:08:24;24.08;;;20.63;;
62903;SDS011;49000;50.698;13.322;2022-08-19T10:10:53;29.35;;;23.58;;
62903;SDS011;49000;50.698;13.322;2022-08-19T10:13:20;27.48;;;22.08;;
62903;SDS011;49000;50.698;13.322;2022-08-19T10:15:48;23.67;;;19.63;;
62903;SDS011;49000;50.698;13.322;2022-08-19T10:18:18;27.55;;;21.70;;
62903;SDS011;49000;50.698;13.322;2022-08-19T10:20:46;25.90;;;20.85;;
62903;SDS011;49000;50.698;13.322;2022-08-19T10:23:13;20.35;;;16.73;;
62903;SDS011;49000;50.698;13.322;2022-08-19T10:25:40;24.20;;;18.75;;
62903;SDS011;49000;50.698;13.322;2022-08-19T10:28:06;19.92;;;16.58;;
62903;SDS011;49000;50.698;13.322;2022-08-19T10:30:33;25.73;;;19.80;;
62903;SDS011;49000;50.698;13.322;2022-08-19T10:33:00;25.35;;;19.60;;
62903;SDS011;49000;50.698;13.322;2022-08-19T10:35:26;19.45;;;15.63;;
62903;SDS011;49000;50.698;13.322;2022-08-19T10:37:53;24.58;;;19.30;;
62903;SDS011;49000;50.698;13.322;2022-08-19T10:40:18;22.58;;;17.60;;
62903;SDS011;49000;50.698;13.322;2022-08-19T10:42:44;21.05;;;16.60;;
62903;SDS011;49000;50.698;13.322;2022-08-19T10:45:10;26.27;;;21.38;;
62903;SDS011;49000;50.698;13.322;2022-08-19T10:47:36;22.77;;;19.55;;
62903;SDS011;49000;50.698;13.322;2022-08-19T10:50:02;21.00;;;18.73;;
62903;SDS011;49000;50.698;13.322;2022-08-19T10:52:47;22.83;;;18.42;;
62903;SDS011;49000;50.698;13.322;2022-08-19T10:55:16;28.50;;;21.38;;
62903;SDS011;49000;50.698;13.322;2022-08-19T10:58:01;20.90;;;17.75;;
62903;SDS011;49000;50.698;13.322;2022-08-19T11:00:27;21.33;;;16.98;;
62903;SDS011;49000;50.698;13.322;2022-08-19T11:02:52;18.35;;;16.35;;
62903;SDS011;49000;50.698;13.322;2022-08-19T11:05:18;23.48;;;18.65;;
62903;SDS011;49000;50.698;13.322;2022-08-19T11:07:44;23.15;;;20.65;;
62903;SDS011;49000;50.698;13.322;2022-08-19T11:10:10;23.58;;;20.58;;
62903;SDS011;49000;50.698;13.322;2022-08-19T11:12:38;22.20;;;19.33;;
62903;SDS011;49000;50.698;13.322;2022-08-19T11:15:06;22.17;;;18.65;;
62903;SDS011;49000;50.698;13.322;2022-08-19T11:17:33;17.38;;;15.57;;
62903;SDS011;49000;50.698;13.322;2022-08-19T11:20:00;22.60;;;17.63;;
62903;SDS011;49000;50.698;13.322;2022-08-19T11:22:29;25.17;;;21.73;;
62903;SDS011;49000;50.698;13.322;2022-08-19T11:24:54;24.38;;;21.20;;
62903;SDS011;49000;50.698;13.322;2022-08-19T11:27:20;24.85;;;20.55;;
62903;SDS011;49000;50.698;13.322;2022-08-19T11:29:46;24.23;;;21.73;;
62903;SDS011;49000;50.698;13.322;2022-08-19T11:32:11;20.80;;;18.50;;
62903;SDS011;49000;50.698;13.322;2022-08-19T11:34:37;18.05;;;16.17;;
62903;SDS011;49000;50.698;13.322;2022-08-19T11:37:04;24.92;;;20.05;;
62903;SDS011;49000;50.698;13.322;2022-08-19T11:39:31;21.05;;;18.45;;
62903;SDS011;49000;50.698;13.322;2022-08-19T11:41:57;20.65;;;18.45;;
62903;SDS011;49000;50.698;13.322;2022-08-19T11:44:23;16.98;;;15.18;;
62903;SDS011;49000;50.698;13.322;2022-08-19T11:46:50;19.20;;;17.13;;
62903;SDS011;49000;50.698;13.322;2022-08-19T11:49:17;20.23;;;17.67;;
62903;SDS011;49000;50.698;13.322;2022-08-19T11:51:44;20.27;;;17.85;;
62903;SDS011;49000;50.698;13.322;2022-08-19T11:54:15;20.77;;;18.60;;
62903;SDS011;49000;50.698;13.322;2022-08-19T11:56:41;24.20;;;20.52;;
62903;SDS011;49000;50.698;13.322;2022-08-19T11:59:07;21.38;;;18.15;;
62903;SDS011;49000;50.698;13.322;2022-08-19T12:01:33;20.33;;;18.27;;
62903;SDS011;49000;50.698;13.322;2022-08-19T12:03:58;20.65;;;18.45;;
62903;SDS011;49000;50.698;13.322;2022-08-19T12:06:26;21.70;;;18.45;;
62903;SDS011;49000;50.698;13.322;2022-08-19T12:08:57;21.63;;;18.83;;
62903;SDS011;49000;50.698;13.322;2022-08-19T12:11:24;22.70;;;20.25;;
62903;SDS011;49000;50.698;13.322;2022-08-19T12:13:50;22.02;;;18.75;;
62903;SDS011;49000;50.698;13.322;2022-08-19T12:16:18;22.23;;;16.75;;
62903;SDS011;49000;50.698;13.322;2022-08-19T12:18:49;22.65;;;19.33;;
62903;SDS011;49000;50.698;13.322;2022-08-19T12:21:16;22.73;;;19.88;;
62903;SDS011;49000;50.698;13.322;2022-08-19T12:23:47;25.70;;;22.67;;
62903;SDS011;49000;50.698;13.322;2022-08-19T12:26:14;20.23;;;17.80;;
62903;SDS011;49000;50.698;13.322;2022-08-19T12:28:40;25.67;;;22.63;;
62903;SDS011;49000;50.698;13.322;2022-08-19T12:31:06;20.33;;;18.23;;
62903;SDS011;49000;50.698;13.322;2022-08-19T12:33:32;27.63;;;22.02;;
62903;SDS011;49000;50.698;13.322;2022-08-19T12:36:02;22.88;;;19.98;;
62903;SDS011;49000;50.698;13.322;2022-08-19T12:38:30;22.60;;;18.88;;
62903;SDS011;49000;50.698;13.322;2022-08-19T12:40:57;20.88;;;17.65;;
62903;SDS011;49000;50.698;13.322;2022-08-19T12:43:22;19.27;;;17.27;;
62903;SDS011;49000;50.698;13.322;2022-08-19T12:45:48;29.63;;;23.25;;
62903;SDS011;49000;50.698;13.322;2022-08-19T12:48:13;24.58;;;20.75;;
62903;SDS011;49000;50.698;13.322;2022-08-19T12:50:40;30.20;;;24.85;;
62903;SDS011;49000;50.698;13.322;2022-08-19T12:53:07;27.50;;;20.13;;
62903;SDS011;49000;50.698;13.322;2022-08-19T12:55:32;31.58;;;24.80;;
62903;SDS011;49000;50.698;13.322;2022-08-19T12:57:58;26.73;;;22.70;;
62903;SDS011;49000;50.698;13.322;2022-08-19T13:00:26;21.48;;;17.65;;
62903;SDS011;49000;50.698;13.322;2022-08-19T13:02:52;29.58;;;25.80;;
62903;SDS011;49000;50.698;13.322;2022-08-19T13:05:19;29.92;;;24.77;;
62903;SDS011;49000;50.698;13.322;2022-08-19T13:07:48;31.77;;;25.65;;
62903;SDS011;49000;50.698;13.322;2022-08-19T13:10:16;26.52;;;21.58;;
62903;SDS011;49000;50.698;13.322;2022-08-19T13:12:44;29.95;;;22.95;;
62903;SDS011;49000;50.698;13.322;2022-08-19T13:15:12;27.95;;;22.38;;
62903;SDS011;49000;50.698;13.322;2022-08-19T13:17:38;25.92;;;21.52;;
62903;SDS011;49000;50.698;13.322;2022-08-19T13:20:05;26.83;;;20.73;;
62903;SDS011;49000;50.698;13.322;2022-08-19T13:22:32;23.20;;;18.33;;
62903;SDS011;49000;50.698;13.322;2022-08-19T13:25:00;25.05;;;19.10;;
62903;SDS011;49000;50.698;13.322;2022-08-19T13:27:26;24.10;;;19.13;;
62903;SDS011;49000;50.698;13.322;2022-08-19T13:29:51;26.13;;;19.63;;
62903;SDS011;49000;50.698;13.322;2022-08-19T13:32:35;23.67;;;18.23;;
62903;SDS011;49000;50.698;13.322;2022-08-19T13:35:20;24.80;;;18.30;;
62903;SDS011;49000;50.698;13.322;2022-08-19T13:37:45;20.90;;;16.45;;
62903;SDS011;49000;50.698;13.322;2022-08-19T13:40:12;20.77;;;16.33;;
62903;SDS011;49000;50.698;13.322;2022-08-19T13:42:47;20.98;;;16.40;;
62903;SDS011;49000;50.698;13.322;2022-08-19T13:45:15;21.38;;;16.17;;
62903;SDS011;49000;50.698;13.322;2022-08-19T13:47:44;19.88;;;15.40;;
62903;SDS011;49000;50.698;13.322;2022-08-19T13:50:22;15.85;;;13.65;;
62903;SDS011;49000;50.698;13.322;2022-08-19T13:52:52;16.08;;;13.82;;
62903;SDS011;49000;50.698;13.322;2022-08-19T13:55:19;14.95;;;12.93;;
62903;SDS011;49000;50.698;13.322;2022-08-19T13:57:45;15.65;;;13.60;;
62903;SDS011;49000;50.698;13.322;2022-08-19T14:00:15;20.33;;;16.02;;
62903;SDS011;49000;50.698;13.322;2022-08-19T14:02:43;24.55;;;18.20;;
62903;SDS011;49000;50.698;13.322;2022-08-19T14:05:11;25.05;;;19.67;;
62903;SDS011;49000;50.698;13.322;2022-08-19T14:07:38;21.48;;;17.33;;
62903;SDS011;49000;50.698;13.322;2022-08-19T14:10:05;23.17;;;18.50;;
62903;SDS011;49000;50.698;13.322;2022-08-19T14:12:32;26.85;;;20.42;;
62903;SDS011;49000;50.698;13.322;2022-08-19T14:14:58;24.60;;;18.77;;